地図

経路データ

SID SEASON NUMBER BASIN SUBBASIN NAME ISO_TIME NATURE LAT LON WMO_WIND WMO_PRES WMO_AGENCY TRACK_TYPE DIST2LAND LANDFALL IFLAG USA_AGENCY USA_ATCF_ID USA_LAT USA_LON USA_RECORD USA_STATUS USA_WIND USA_PRES USA_SSHS USA_R34_NE USA_R34_SE USA_R34_SW USA_R34_NW USA_R50_NE USA_R50_SE USA_R50_SW USA_R50_NW USA_R64_NE USA_R64_SE USA_R64_SW USA_R64_NW USA_POCI USA_ROCI USA_RMW USA_EYE TOKYO_LAT TOKYO_LON TOKYO_GRADE TOKYO_WIND TOKYO_PRES TOKYO_R50_DIR TOKYO_R50_LONG TOKYO_R50_SHORT TOKYO_R30_DIR TOKYO_R30_LONG TOKYO_R30_SHORT TOKYO_LAND CMA_LAT CMA_LON CMA_CAT CMA_WIND CMA_PRES HKO_LAT HKO_LON HKO_CAT HKO_WIND HKO_PRES NEWDELHI_LAT NEWDELHI_LON NEWDELHI_GRADE NEWDELHI_WIND NEWDELHI_PRES NEWDELHI_CI NEWDELHI_DP NEWDELHI_POCI REUNION_LAT REUNION_LON REUNION_TYPE REUNION_WIND REUNION_PRES REUNION_TNUM REUNION_CI REUNION_RMW REUNION_R34_NE REUNION_R34_SE REUNION_R34_SW REUNION_R34_NW REUNION_R50_NE REUNION_R50_SE REUNION_R50_SW REUNION_R50_NW REUNION_R64_NE REUNION_R64_SE REUNION_R64_SW REUNION_R64_NW BOM_LAT BOM_LON BOM_TYPE BOM_WIND BOM_PRES BOM_TNUM BOM_CI BOM_RMW BOM_R34_NE BOM_R34_SE BOM_R34_SW BOM_R34_NW BOM_R50_NE BOM_R50_SE BOM_R50_SW BOM_R50_NW BOM_R64_NE BOM_R64_SE BOM_R64_SW BOM_R64_NW BOM_ROCI BOM_POCI BOM_EYE BOM_POS_METHOD BOM_PRES_METHOD NADI_LAT NADI_LON NADI_CAT NADI_WIND NADI_PRES WELLINGTON_LAT WELLINGTON_LON WELLINGTON_WIND WELLINGTON_PRES DS824_LAT DS824_LON DS824_STAGE DS824_WIND DS824_PRES TD9636_LAT TD9636_LON TD9636_STAGE TD9636_WIND TD9636_PRES TD9635_LAT TD9635_LON TD9635_WIND TD9635_PRES TD9635_ROCI NEUMANN_LAT NEUMANN_LON NEUMANN_CLASS NEUMANN_WIND NEUMANN_PRES MLC_LAT MLC_LON MLC_CLASS MLC_WIND MLC_PRES USA_GUST BOM_GUST BOM_GUST_PER REUNION_GUST REUNION_GUST_PER USA_SEAHGT USA_SEARAD_NE USA_SEARAD_SE USA_SEARAD_SW USA_SEARAD_NW STORM_SPEED STORM_DIR
1989260N13264 1989 102 EP MM PRISCILLA 1989-09-16 18:00:00 NR 12.6000 -95.9000 main 344 324 O_____________ jtwc_ep EP191989 12.6000 -95.9000 25 -1 17 277
1989260N13264 1989 102 EP MM PRISCILLA 1989-09-16 21:00:00 NR 12.7005 -96.7549 main 325 320 P_____________ EP191989 12.7005 -96.7549 25 -1 17 277
1989260N13264 1989 102 EP MM PRISCILLA 1989-09-17 00:00:00 NR 12.8000 -97.6000 main 331 331 O_____________ jtwc_ep EP191989 12.8000 -97.6000 25 -1 16 277
1989260N13264 1989 102 EP MM PRISCILLA 1989-09-17 03:00:00 NR 12.8998 -98.4225 main 353 352 P_____________ EP191989 12.8998 -98.4225 25 -1 16 277
1989260N13264 1989 102 EP MM PRISCILLA 1989-09-17 06:00:00 NR 13.0000 -99.2000 main 368 368 O_____________ jtwc_ep EP191989 13.0000 -99.2000 25 -1 15 277
1989260N13264 1989 102 EP MM PRISCILLA 1989-09-17 09:00:00 NR 13.0924 -99.9525 main 388 388 P_____________ EP191989 13.0924 -99.9525 25 -1 14 278
1989260N13264 1989 102 EP MM PRISCILLA 1989-09-17 12:00:00 NR 13.2000 -100.600 main 403 398 O_____________ jtwc_ep EP191989 13.2000 -100.600 25 -1 12 283
1989260N13264 1989 102 EP MM PRISCILLA 1989-09-17 15:00:00 NR 13.3498 -101.102 main 409 398 P_____________ EP191989 13.3498 -101.102 25 -1 9 289
1989260N13264 1989 102 EP MM PRISCILLA 1989-09-17 18:00:00 NR 13.5000 -101.500 main 407 407 O_____________ jtwc_ep EP191989 13.5000 -101.500 25 -1 8 288
1989260N13264 1989 102 EP MM PRISCILLA 1989-09-17 21:00:00 NR 13.5999 -101.880 main 419 415 P_____________ EP191989 13.5999 -101.880 25 -1 7 286
1989260N13264 1989 102 EP MM PRISCILLA 1989-09-18 00:00:00 NR 13.7000 -102.200 main 419 412 O_____________ jtwc_ep EP191989 13.7000 -102.200 25 -1 6 294
1989260N13264 1989 102 EP MM PRISCILLA 1989-09-18 03:00:00 NR 13.8499 -102.465 main 419 402 P_____________ EP191989 13.8499 -102.465 25 -1 6 302
1989260N13264 1989 102 EP MM PRISCILLA 1989-09-18 06:00:00 NR 14.0000 -102.700 main 407 401 O_____________ jtwc_ep EP191989 14.0000 -102.700 25 -1 5 298
1989260N13264 1989 102 EP MM PRISCILLA 1989-09-18 09:00:00 NR 14.1000 -102.958 main 411 407 P_____________ EP191989 14.1000 -102.958 25 -1 5 292
1989260N13264 1989 102 EP MM PRISCILLA 1989-09-18 12:00:00 NR 14.2000 -103.200 main 413 410 O_____________ jtwc_ep EP191989 14.2000 -103.200 25 -1 5 298
1989260N13264 1989 102 EP MM PRISCILLA 1989-09-18 15:00:00 NR 14.3425 -103.422 main 416 405 P_____________ EP191989 14.3425 -103.422 25 -1 5 308
1989260N13264 1989 102 EP MM PRISCILLA 1989-09-18 18:00:00 NR 14.5000 -103.600 main 405 394 O_____________ jtwc_ep EP191989 14.5000 -103.600 25 -1 4 318
1989260N13264 1989 102 EP MM PRISCILLA 1989-09-18 21:00:00 NR 14.6500 -103.715 main 398 380 P_____________ EP191989 14.6500 -103.715 25 -1 4 327
1989260N13264 1989 102 EP MM PRISCILLA 1989-09-19 00:00:00 NR 14.8000 -103.800 main 380 369 O_____________ jtwc_ep EP191989 14.8000 -103.800 25 -1 4 329
1989260N13264 1989 102 EP MM PRISCILLA 1989-09-19 03:00:00 NR 14.9575 -103.907 main 362 355 P_____________ EP191989 14.9575 -103.907 25 -1 4 327
1989260N13264 1989 102 EP MM PRISCILLA 1989-09-19 06:00:00 NR 15.1000 -104.000 main 355 345 O_____________ jtwc_ep EP191989 15.1000 -104.000 25 -1 3 329
1989260N13264 1989 102 EP MM PRISCILLA 1989-09-19 09:00:00 NR 15.2000 -104.058 main 348 338 P_____________ EP191989 15.2000 -104.058 25 -1 2 333
1989260N13264 1989 102 EP MM PRISCILLA 1989-09-19 12:00:00 NR 15.3000 -104.100 main 338 327 O_____________ jtwc_ep EP191989 15.3000 -104.100 25 -1 3 338
1989260N13264 1989 102 EP MM PRISCILLA 1989-09-19 15:00:00 NR 15.4350 -104.157 main 330 309 P_____________ EP191989 15.4350 -104.157 25 -1 3 343
1989260N13264 1989 102 EP MM PRISCILLA 1989-09-19 18:00:00 NR 15.6000 -104.200 main 309 288 O_____________ jtwc_ep EP191989 15.6000 -104.200 25 -1 4 354
1989260N13264 1989 102 EP MM PRISCILLA 1989-09-19 21:00:00 NR 15.8000 -104.208 main 288 267 P_____________ EP191989 15.8000 -104.208 25 -1 4 0
1989260N13264 1989 102 EP MM PRISCILLA 1989-09-20 00:00:00 NR 16.0000 -104.200 main 267 257 O_____________ jtwc_ep EP191989 16.0000 -104.200 25 -1 4 0
1989260N13264 1989 102 EP MM PRISCILLA 1989-09-20 03:00:00 NR 16.1500 -104.207 main 246 235 P_____________ EP191989 16.1500 -104.207 25 -1 3 0
1989260N13264 1989 102 EP MM PRISCILLA 1989-09-20 06:00:00 NR 16.3000 -104.200 main 235 214 O_____________ jtwc_ep EP191989 16.3000 -104.200 25 -1 3 10
1989260N13264 1989 102 EP MM PRISCILLA 1989-09-20 09:00:00 NR 16.4850 -104.150 main 214 190 P_____________ EP191989 16.4850 -104.150 25 -1 4 13
1989260N13264 1989 102 EP MM PRISCILLA 1989-09-20 12:00:00 NR 16.7000 -104.100 main 190 169 O_____________ jtwc_ep EP191989 16.7000 -104.100 25 -1 5 7
1989260N13264 1989 102 EP MM PRISCILLA 1989-09-20 15:00:00 NR 16.9425 -104.085 main 169 138 P_____________ EP191989 16.9425 -104.085 25 -1 5 2
1989260N13264 1989 102 EP MM PRISCILLA 1989-09-20 18:00:00 NR 17.2000 -104.100 main 138 119 O_____________ jtwc_ep EP191989 17.2000 -104.100 25 -1 5 357
1989260N13264 1989 102 EP MM PRISCILLA 1989-09-20 21:00:00 NR 17.4575 -104.128 main 109 99 P_____________ EP191989 17.4575 -104.128 25 -1 5 349
1989260N13264 1989 102 EP MM PRISCILLA 1989-09-21 00:00:00 NR 17.7000 -104.200 main 99 92 O_____________ jtwc_ep EP191989 17.7000 -104.200 25 -1 5 340
1989260N13264 1989 102 EP MM PRISCILLA 1989-09-21 03:00:00 NR 17.8999 -104.298 main 95 90 P_____________ EP191989 17.8999 -104.298 25 -1 5 325
1989260N13264 1989 102 EP MM PRISCILLA 1989-09-21 06:00:00 TS 18.1000 -104.500 25 1004 hurdat_epa main 102 94 O_________O___ hurdat_epa EP191989 18.1000 -104.500 TD 25 1004 -1 18.1000 -104.500 1 25 7 308
1989260N13264 1989 102 EP MM PRISCILLA 1989-09-21 09:00:00 TS 18.3291 -104.868 main 100 79 P_________P___ EP191989 18.3275 -104.848 TD 27 1004 -1 18.3305 -104.886 1 27 9 303
1989260N13264 1989 102 EP MM PRISCILLA 1989-09-21 12:00:00 TS 18.6000 -105.300 30 1004 hurdat_epa main 85 84 O_________O___ hurdat_epa EP191989 18.6000 -105.300 TD 30 1004 -1 18.6000 -105.300 1 30 11 305
1989260N13264 1989 102 EP MM PRISCILLA 1989-09-21 15:00:00 TS 18.9349 -105.779 main 100 92 P_________P___ EP191989 18.9350 -105.785 TD 32 1003 -1 18.9346 -105.760 1 32 12 307
1989260N13264 1989 102 EP MM PRISCILLA 1989-09-21 18:00:00 TS 19.3017 -106.290 35 1003 hurdat_epa main 113 113 O_________P___ hurdat_epa EP191989 19.3000 -106.300 TS 35 1003 0 19.3068 -106.258 1 35 12 307
1989260N13264 1989 102 EP MM PRISCILLA 1989-09-21 21:00:00 TS 19.6618 -106.789 main 139 139 P_________P___ EP191989 19.6573 -106.793 TS 37 1002 0 19.6755 -106.777 1 37 12 306
1989260N13264 1989 102 EP MM PRISCILLA 1989-09-22 00:00:00 TS 20.0000 -107.300 40 1002 hurdat_epa main 172 172 O_________O___ hurdat_epa EP191989 20.0000 -107.300 TS 40 1002 0 20.0000 -107.300 2 40 12 304
1989260N13264 1989 102 EP MM PRISCILLA 1989-09-22 03:00:00 TS 20.3222 -107.849 main 219 219 P_________P___ EP191989 20.3450 -107.857 TS 42 1000 0 20.2537 -107.825 2 42 12 299
1989260N13264 1989 102 EP MM PRISCILLA 1989-09-22 06:00:00 TS 20.5638 -108.386 45 999 hurdat_epa main 282 266 O_________P___ hurdat_epa EP191989 20.6000 -108.400 TS 45 999 0 20.4551 -108.345 2 45 10 290
1989260N13264 1989 102 EP MM PRISCILLA 1989-09-22 09:00:00 TS 20.6721 -108.871 main 262 251 P_________P___ EP191989 20.6949 -108.880 TS 47 998 0 20.6038 -108.843 2 47 9 279
1989260N13264 1989 102 EP MM PRISCILLA 1989-09-22 12:00:00 TS 20.7000 -109.300 50 997 hurdat_epa main 251 246 O_________O___ hurdat_epa EP191989 20.7000 -109.300 TS 50 997 0 20.7000 -109.300 2 50 7 274
1989260N13264 1989 102 EP MM PRISCILLA 1989-09-22 15:00:00 TS 20.7189 -109.670 main 246 245 P_________P___ EP191989 20.7073 -109.665 TS 52 995 0 20.7535 -109.686 2 51 7 271
1989260N13264 1989 102 EP MM PRISCILLA 1989-09-22 18:00:00 TS 20.7147 -110.008 55 994 hurdat_epa main 245 245 O_________P___ hurdat_epa EP191989 20.7000 -110.000 TS 55 994 0 20.7589 -110.031 2 52 6 269
1989260N13264 1989 102 EP MM PRISCILLA 1989-09-22 21:00:00 TS 20.7086 -110.341 main 247 247 P_________P___ EP191989 20.6998 -110.335 TS 55 993 0 20.7349 -110.360 2 53 6 269
1989260N13264 1989 102 EP MM PRISCILLA 1989-09-23 00:00:00 TS 20.7000 -110.700 55 993 hurdat_epa main 256 256 O_________O___ hurdat_epa EP191989 20.7000 -110.700 TS 55 993 0 20.7000 -110.700 2 55 7 269
1989260N13264 1989 102 EP MM PRISCILLA 1989-09-23 03:00:00 TS 20.7003 -111.140 main 270 270 P_________P___ EP191989 20.7076 -111.150 TS 52 994 0 20.6784 -111.110 2 52 8 269
1989260N13264 1989 102 EP MM PRISCILLA 1989-09-23 06:00:00 TS 20.6876 -111.583 50 996 hurdat_epa main 296 296 O_________P___ hurdat_epa EP191989 20.7000 -111.600 TS 50 996 0 20.6504 -111.530 2 50 8 266
1989260N13264 1989 102 EP MM PRISCILLA 1989-09-23 09:00:00 TS 20.6486 -111.969 main 329 329 P_________P___ EP191989 20.6574 -111.980 TS 47 998 0 20.6221 -111.935 2 47 7 263
1989260N13264 1989 102 EP MM PRISCILLA 1989-09-23 12:00:00 TS 20.6000 -112.300 45 1000 hurdat_epa main 350 350 O_________O___ hurdat_epa EP191989 20.6000 -112.300 TS 45 1000 0 20.6000 -112.300 2 45 6 260
1989260N13264 1989 102 EP MM PRISCILLA 1989-09-23 15:00:00 TS 20.5471 -112.562 main 379 379 P_________P___ EP191989 20.5349 -112.565 TS 42 1001 0 20.5837 -112.553 2 42 5 260
1989260N13264 1989 102 EP MM PRISCILLA 1989-09-23 18:00:00 TS 20.5190 -112.793 40 1003 hurdat_epa main 394 394 O_________P___ hurdat_epa EP191989 20.5000 -112.800 TS 40 1003 0 20.5760 -112.770 2 40 4 270
1989260N13264 1989 102 EP MM PRISCILLA 1989-09-23 21:00:00 TS 20.5462 -113.016 main 409 402 P_________P___ EP191989 20.5348 -113.020 TS 37 1004 0 20.5804 -113.003 2 37 5 280
1989260N13264 1989 102 EP MM PRISCILLA 1989-09-24 00:00:00 TS 20.6000 -113.300 35 1005 hurdat_epa main 426 426 O_________O___ hurdat_epa EP191989 20.6000 -113.300 TS 35 1005 0 20.6000 -113.300 2 35 7 279
1989260N13264 1989 102 EP MM PRISCILLA 1989-09-24 03:00:00 TS 20.6495 -113.710 main 460 454 P_________P___ EP191989 20.6500 -113.705 TS 32 1006 -1 20.6481 -113.724 2 33 9 277
1989260N13264 1989 102 EP MM PRISCILLA 1989-09-24 06:00:00 TS 20.7020 -114.204 30 1007 hurdat_epa main 490 490 O_________P___ hurdat_epa EP191989 20.7000 -114.200 TD 30 1007 -1 20.7079 -114.217 2 32 10 277
1989260N13264 1989 102 EP MM PRISCILLA 1989-09-24 09:00:00 TS 20.7589 -114.734 main 509 509 P_________P___ EP191989 20.7574 -114.727 TD 30 1007 -1 20.7636 -114.752 2 31 10 275
1989260N13264 1989 102 EP MM PRISCILLA 1989-09-24 12:00:00 TS 20.8000 -115.300 30 1008 hurdat_epa main 545 545 O_________O___ hurdat_epa EP191989 20.8000 -115.300 TD 30 1008 -1 20.8000 -115.300 1 30 11 273
1989260N13264 1989 102 EP MM PRISCILLA 1989-09-24 15:00:00 TS 20.8115 -115.900 main 584 584 P_________P___ EP191989 20.8151 -115.915 TD 30 1008 -1 20.8009 -115.855 1 28 11 270
1989260N13264 1989 102 EP MM PRISCILLA 1989-09-24 18:00:00 TS 20.7951 -116.478 30 1009 hurdat_epa main 627 627 O_________P___ hurdat_epa EP191989 20.8000 -116.500 TD 30 1009 -1 20.7805 -116.410 1 27 10 267
1989260N13264 1989 102 EP MM PRISCILLA 1989-09-24 21:00:00 TS 20.7542 -116.975 main 664 664 P_________P___ EP191989 20.7573 -116.988 TD 27 1009 -1 20.7448 -116.936 1 26 9 264
1989260N13264 1989 102 EP MM PRISCILLA 1989-09-25 00:00:00 TS 20.7000 -117.400 25 1010 hurdat_epa main 702 702 O_________O___ hurdat_epa EP191989 20.7000 -117.400 TD 25 1010 -1 20.7000 -117.400 1 25 8 262
1989260N13264 1989 102 EP MM PRISCILLA 1989-09-25 03:00:00 TS 20.6515 -117.778 main 734 734 P_________P___ EP191989 20.6499 -117.780 TD 25 1010 -1 20.6561 -117.772 1 25 7 261
1989260N13264 1989 102 EP MM PRISCILLA 1989-09-25 06:00:00 TS 20.6015 -118.095 25 1010 hurdat_epa main 765 765 O_________P___ hurdat_epa EP191989 20.6000 -118.100 TD 25 1010 -1 20.6060 -118.082 1 25 6 260
1989260N13264 1989 102 EP MM PRISCILLA 1989-09-25 09:00:00 TS 20.5507 -118.361 main 790 790 P_________P___ EP191989 20.5499 -118.365 TD 25 1010 -1 20.5529 -118.350 1 25 5 258
1989260N13264 1989 102 EP MM PRISCILLA 1989-09-25 12:00:00 TS 20.5000 -118.600 25 1010 hurdat_epa main 813 813 O_________O___ hurdat_epa EP191989 20.5000 -118.600 TD 25 1010 -1 20.5000 -118.600 1 25 5 257
1989260N13264 1989 102 EP MM PRISCILLA 1989-09-25 15:00:00 TS 20.4469 -118.851 main 845 845 P_________P___ EP191989 20.4425 -118.858 TD 25 1010 -1 20.4493 -118.849 1 25 5 258
1989260N13264 1989 102 EP MM PRISCILLA 1989-09-25 18:00:00 TS 20.4000 -119.100 25 1010 hurdat_epa main 861 861 O_________O___ hurdat_epa EP191989 20.4000 -119.100 TD 25 1010 -1 20.4000 -119.100 1 25 4 262
1989260N13264 1989 102 EP MM PRISCILLA 1989-09-25 21:00:00 NR 20.3900 -119.310 main 878 878 P_____________ EP191989 20.3900 -119.310 TD 25 -1 1 4 270
1989260N13264 1989 102 EP MM PRISCILLA 1989-09-26 00:00:00 NR 20.4000 -119.500 main 895 O_____________ jtwc_ep EP191989 20.4000 -119.500 25 -1 4 273

IBTrACS Databaseについて

本データベースは、米国NOAAが公開する1842年以降の世界の熱帯低気圧のベストトラックデータアーカイブInternational Best Track Archive for Climate Stewardship (IBTrACS)を、ウェブで閲覧しやすい形式に変換したものです。

最終更新日:2021-10-08